createdAt,value
2023-02-08T06:18:50.422Z,-5.55
2023-02-08T06:28:50.415Z,-5.72
2023-02-08T06:38:51.403Z,-5.85
2023-02-08T06:48:50.496Z,-5.93
2023-02-08T06:58:50.574Z,-5.57
2023-02-08T07:08:50.612Z,-5.47
2023-02-08T07:18:50.562Z,-5.33
2023-02-08T07:28:50.512Z,-5.08
2023-02-08T07:38:50.655Z,-4.87
2023-02-08T07:48:50.499Z,-4.37
2023-02-08T07:58:50.697Z,-3.78
2023-02-08T08:08:50.790Z,-4.04
2023-02-08T08:18:50.791Z,-3.88
2023-02-08T08:28:50.764Z,-3.91
2023-02-08T08:38:50.913Z,-3.61
2023-02-08T08:48:51.158Z,-3.44
2023-02-08T08:58:51.022Z,-2.94
2023-02-08T09:08:51.873Z,-2.83
2023-02-08T09:18:51.172Z,-2.55
2023-02-08T09:28:51.032Z,-2.16
2023-02-08T09:38:51.202Z,-1.84
2023-02-08T09:48:51.019Z,-1.72
2023-02-08T09:58:51.096Z,-1.38
2023-02-08T10:08:51.151Z,-1.29
2023-02-08T10:18:51.066Z,-0.59
2023-02-08T10:28:52.374Z,-0.50
2023-02-08T10:38:51.194Z,0.02
2023-02-08T10:48:51.313Z,0.27
2023-02-08T10:58:51.092Z,0.58
2023-02-08T11:08:51.223Z,0.51
2023-02-08T11:18:51.281Z,0.70
2023-02-08T11:28:51.152Z,1.15
2023-02-08T11:38:51.233Z,1.17
2023-02-08T11:48:51.348Z,1.61
2023-02-08T11:58:51.215Z,1.91
2023-02-08T12:08:51.198Z,2.04
2023-02-08T12:18:51.323Z,2.07
2023-02-08T12:28:51.267Z,2.11
2023-02-08T12:38:51.190Z,2.33
2023-02-08T12:48:51.219Z,2.35
2023-02-08T12:58:53.518Z,2.54
2023-02-08T13:08:51.101Z,2.88
2023-02-08T13:18:51.190Z,2.52
2023-02-08T13:28:51.110Z,2.55
2023-02-08T13:38:51.177Z,2.83
2023-02-08T13:48:51.097Z,2.56
2023-02-08T13:58:51.100Z,2.69
2023-02-08T14:08:51.055Z,2.82
2023-02-08T14:18:51.133Z,2.59
2023-02-08T14:28:51.140Z,2.69
2023-02-08T14:38:51.134Z,3.08
2023-02-08T14:48:51.278Z,3.04
2023-02-08T14:58:51.197Z,2.84
2023-02-08T15:08:51.313Z,3.04
2023-02-08T15:18:51.199Z,2.71
2023-02-08T15:28:51.173Z,2.48
2023-02-08T15:38:51.232Z,2.14
2023-02-08T15:48:51.151Z,2.13
2023-02-08T15:58:51.304Z,1.76
2023-02-08T16:08:51.296Z,1.36
2023-02-08T16:18:51.237Z,0.53
2023-02-08T16:28:51.419Z,0.57
2023-02-08T16:38:51.287Z,0.53
2023-02-08T16:48:51.218Z,0.30
2023-02-08T16:58:51.317Z,-0.03
2023-02-08T17:08:51.343Z,-0.20
2023-02-08T17:18:51.203Z,-0.59
2023-02-08T17:28:51.363Z,-0.85
2023-02-08T17:38:51.256Z,-1.07
2023-02-08T17:48:51.335Z,-1.37
2023-02-08T17:58:53.471Z,-1.50
2023-02-08T18:08:51.242Z,-1.72
2023-02-08T18:18:51.313Z,-1.82
2023-02-08T18:28:51.268Z,-2.03
2023-02-08T18:38:51.202Z,-2.09
2023-02-08T18:48:51.278Z,-2.16
2023-02-08T18:58:51.240Z,-2.17
2023-02-08T19:08:51.368Z,-2.38
2023-02-08T19:18:51.454Z,-2.30
